createdAt,value
2023-02-07T00:00:10.863Z,2
2023-02-07T00:03:12.850Z,2.1
2023-02-07T00:06:14.777Z,2.7
2023-02-07T00:09:16.754Z,2.5
2023-02-07T00:12:18.719Z,2.2
2023-02-07T00:15:20.667Z,2.3
2023-02-07T00:18:22.638Z,2
2023-02-07T00:21:24.624Z,2.1
2023-02-07T00:24:26.566Z,2.2
2023-02-07T00:27:28.523Z,2.2
2023-02-07T00:30:30.634Z,2.5
2023-02-07T00:33:32.470Z,2
2023-02-07T00:36:34.423Z,2
2023-02-07T00:39:36.399Z,1.9
2023-02-07T00:42:38.360Z,2.1
2023-02-07T00:45:40.448Z,1.9
2023-02-07T00:48:42.280Z,2.2
2023-02-07T00:51:44.222Z,1.7
2023-02-07T00:54:46.219Z,1.9
2023-02-07T00:57:48.148Z,2.3
2023-02-07T01:00:50.112Z,2.1
2023-02-07T01:03:52.079Z,2.2
2023-02-07T01:06:54.117Z,2
2023-02-07T01:09:55.989Z,1.9
2023-02-07T01:12:57.963Z,1.8
2023-02-07T01:15:59.934Z,2
2023-02-07T01:19:01.864Z,2.2
2023-02-07T01:22:03.838Z,1.9
2023-02-07T01:25:05.774Z,2.1
2023-02-07T01:28:07.814Z,2.1
2023-02-07T01:31:09.795Z,1.9
2023-02-07T01:34:11.671Z,2
2023-02-07T01:37:13.638Z,2.4
2023-02-07T01:40:15.595Z,1.8
2023-02-07T01:43:17.559Z,2
2023-02-07T01:46:19.557Z,1.8
2023-02-07T01:49:21.499Z,1.8
2023-02-07T01:52:23.409Z,2
2023-02-07T01:55:25.378Z,2
2023-02-07T01:58:27.331Z,1.8
2023-02-07T02:01:29.396Z,2.1
2023-02-07T02:04:31.274Z,1.6
2023-02-07T02:07:33.215Z,1.8
2023-02-07T02:10:35.160Z,2
2023-02-07T02:13:37.126Z,2.1
2023-02-07T02:16:39.094Z,2.4
2023-02-07T02:19:41.054Z,2
2023-02-07T02:22:43.000Z,2.2
2023-02-07T02:25:44.960Z,2.5
2023-02-07T02:28:46.912Z,2.4
2023-02-07T02:31:48.886Z,2.3
2023-02-07T02:34:50.841Z,2.4
2023-02-07T02:37:52.806Z,2.5
2023-02-07T02:40:54.777Z,2.5
2023-02-07T02:43:56.752Z,2.8
2023-02-07T02:46:58.737Z,2.4
2023-02-07T02:50:00.688Z,2.3
2023-02-07T02:53:02.664Z,2.9
2023-02-07T02:56:04.626Z,2.6
2023-02-07T02:59:06.593Z,2.6
2023-02-07T03:02:08.541Z,2.8
2023-02-07T03:05:10.553Z,3
2023-02-07T03:08:12.485Z,2.7
2023-02-07T03:11:14.439Z,2.8
2023-02-07T03:14:16.412Z,3.1
2023-02-07T03:17:18.383Z,2.6
2023-02-07T03:20:20.321Z,3.3
2023-02-07T03:23:22.277Z,3.9
2023-02-07T03:26:24.210Z,3.4
2023-02-07T03:29:26.152Z,3.3
2023-02-07T03:32:28.133Z,3.4
2023-02-07T03:35:30.093Z,3.6
2023-02-07T03:38:32.057Z,3.6
2023-02-07T03:41:34.000Z,3.9
2023-02-07T03:44:35.997Z,3.3
2023-02-07T03:47:37.927Z,4.1
2023-02-07T03:50:39.918Z,4.1
2023-02-07T03:53:42.031Z,4
2023-02-07T03:56:43.837Z,4
2023-02-07T03:59:45.804Z,3.9
2023-02-07T04:02:47.774Z,4.7
2023-02-07T04:05:49.750Z,3.8
2023-02-07T04:08:51.717Z,5.1
2023-02-07T04:11:53.678Z,4
2023-02-07T04:14:55.649Z,4.8
2023-02-07T04:17:57.602Z,4.6
2023-02-07T04:20:59.551Z,5.3
2023-02-07T04:24:01.556Z,5.5
2023-02-07T04:27:03.466Z,5.5
2023-02-07T04:30:05.432Z,4.9
2023-02-07T04:33:07.386Z,5.4
2023-02-07T04:36:09.332Z,5.6
2023-02-07T04:39:11.278Z,5.1
2023-02-07T04:42:13.230Z,5.6
2023-02-07T04:45:15.213Z,5.3
2023-02-07T04:48:17.175Z,5.5
2023-02-07T04:51:19.145Z,5
2023-02-07T04:54:21.099Z,4.9
2023-02-07T04:57:23.061Z,5.8
2023-02-07T05:00:25.028Z,6.5
2023-02-07T05:03:26.994Z,6.3
2023-02-07T05:06:28.977Z,6.2
2023-02-07T05:09:30.931Z,6.5
2023-02-07T05:12:32.891Z,5.8
2023-02-07T05:15:34.838Z,6.3
2023-02-07T05:18:36.805Z,5.7
2023-02-07T05:21:38.758Z,6.5
2023-02-07T05:24:40.726Z,6.6
2023-02-07T05:27:42.680Z,7.1
2023-02-07T05:30:44.706Z,7
2023-02-07T05:33:46.624Z,6.5
2023-02-07T05:36:48.589Z,6
2023-02-07T05:39:50.556Z,6.3
2023-02-07T05:42:52.553Z,6.1
2023-02-07T05:45:54.551Z,5.8
2023-02-07T05:48:56.477Z,5.8
2023-02-07T05:51:58.431Z,6.5
2023-02-07T05:55:00.503Z,6.6
2023-02-07T05:58:02.353Z,6.6
2023-02-07T06:01:04.495Z,6.4
2023-02-07T06:04:06.267Z,6.7
2023-02-07T06:07:08.223Z,6
2023-02-07T06:10:10.165Z,7.1
2023-02-07T06:13:12.132Z,6.5
2023-02-07T06:16:14.166Z,6.8
2023-02-07T06:19:16.049Z,6.4
2023-02-07T06:22:18.014Z,7.5
2023-02-07T06:25:21.385Z,7.5
2023-02-07T06:28:21.945Z,6.9
2023-02-07T06:31:23.982Z,7.6
2023-02-07T06:34:25.855Z,7.4
2023-02-07T06:37:27.838Z,6.7
2023-02-07T06:40:29.794Z,7.2
2023-02-07T06:43:31.769Z,7.3
2023-02-07T06:46:33.791Z,8.1
2023-02-07T06:49:35.695Z,8.4
2023-02-07T06:52:37.656Z,7.6
2023-02-07T06:55:39.954Z,7.7
2023-02-07T06:58:41.567Z,8.4
2023-02-07T07:01:43.595Z,8.3
2023-02-07T07:04:45.501Z,9.3
2023-02-07T07:07:47.486Z,9
2023-02-07T07:10:49.419Z,9.1
2023-02-07T07:13:51.411Z,8.4
2023-02-07T07:16:54.772Z,8.2
2023-02-07T07:19:55.296Z,8.8
2023-02-07T07:22:57.263Z,9.7
2023-02-07T07:25:59.224Z,10.4
2023-02-07T07:29:01.182Z,9.7
2023-02-07T07:32:03.190Z,9
2023-02-07T07:35:05.158Z,11
2023-02-07T07:38:07.100Z,8.2
2023-02-07T07:41:09.072Z,9.2
2023-02-07T07:44:11.028Z,9.2
2023-02-07T07:47:12.973Z,8.5
2023-02-07T07:50:14.960Z,8.4
2023-02-07T07:53:16.908Z,7.5
2023-02-07T07:56:18.894Z,8.8
2023-02-07T07:59:24.146Z,8.5
2023-02-07T08:02:22.814Z,9.7
2023-02-07T08:05:24.772Z,9.9
2023-02-07T08:08:26.724Z,10
2023-02-07T08:11:28.678Z,9.8
2023-02-07T08:14:30.649Z,9
2023-02-07T08:17:32.614Z,9.2
2023-02-07T08:20:34.567Z,9.3
2023-02-07T08:23:36.526Z,9
2023-02-07T08:26:38.480Z,8
2023-02-07T08:29:40.466Z,9.6
2023-02-07T08:32:42.402Z,8.9
2023-02-07T08:35:44.388Z,8.4
2023-02-07T08:38:46.316Z,7.8
2023-02-07T08:41:48.280Z,8.8
2023-02-07T08:44:50.246Z,8.4
2023-02-07T08:47:52.247Z,9.3
2023-02-07T08:50:54.164Z,9
2023-02-07T08:53:56.132Z,8.8
2023-02-07T08:56:58.077Z,8.6
2023-02-07T09:00:00.062Z,8.7
2023-02-07T09:03:02.018Z,9
2023-02-07T09:06:03.971Z,9
2023-02-07T09:09:06.025Z,8.7
2023-02-07T09:12:07.900Z,8.7
2023-02-07T09:15:09.880Z,8.9
2023-02-07T09:18:11.813Z,8.3
2023-02-07T09:21:13.780Z,8.1
2023-02-07T09:24:15.727Z,8.9
2023-02-07T09:27:17.703Z,7.8
2023-02-07T09:30:19.650Z,7.7
2023-02-07T09:33:21.631Z,8.6
2023-02-07T09:36:23.591Z,8.6
2023-02-07T09:39:25.536Z,9.6
2023-02-07T09:42:27.510Z,8.6
2023-02-07T09:45:29.527Z,9.1
2023-02-07T09:48:31.426Z,8.4
2023-02-07T09:51:33.390Z,9.1
2023-02-07T09:54:35.370Z,7.7
2023-02-07T09:57:37.326Z,8.3
2023-02-07T10:00:39.514Z,8.1
2023-02-07T10:03:41.246Z,8.7
2023-02-07T10:06:43.209Z,8.5
2023-02-07T10:09:45.233Z,8.4
2023-02-07T10:12:47.182Z,9
2023-02-07T10:15:49.220Z,9.7
2023-02-07T10:18:51.109Z,8.8
2023-02-07T10:21:53.105Z,8.9
2023-02-07T10:24:55.051Z,8
2023-02-07T10:27:57.065Z,8.4
2023-02-07T10:30:59.027Z,8.2
2023-02-07T10:34:00.907Z,8
2023-02-07T10:37:02.870Z,8.1
2023-02-07T10:40:04.833Z,7.7
2023-02-07T10:43:06.876Z,8.4
2023-02-07T10:46:08.803Z,9.4
2023-02-07T10:49:10.710Z,7.9
2023-02-07T10:52:12.875Z,8.7
2023-02-07T10:55:14.644Z,8.7
2023-02-07T10:58:22.666Z,8.2
2023-02-07T11:01:18.592Z,7.3
2023-02-07T11:04:20.531Z,7.7
2023-02-07T11:07:22.512Z,8.2
2023-02-07T11:10:24.487Z,7.5
2023-02-07T11:13:27.828Z,8.3
2023-02-07T11:16:28.485Z,7.9
2023-02-07T11:19:30.371Z,7.8
2023-02-07T11:22:32.319Z,8.5
2023-02-07T11:25:34.302Z,7.6
2023-02-07T11:28:36.261Z,7.8
2023-02-07T11:31:38.362Z,8.2
2023-02-07T11:34:40.197Z,7.9
2023-02-07T11:37:42.196Z,8.8
2023-02-07T11:40:44.132Z,8.2
2023-02-07T11:43:46.076Z,8
2023-02-07T11:46:48.107Z,8.5
2023-02-07T11:49:50.017Z,8.5
2023-02-07T11:52:51.984Z,8.5
2023-02-07T11:55:54.526Z,8
2023-02-07T11:58:55.923Z,7.7
2023-02-07T12:01:57.893Z,8.2
2023-02-07T12:04:59.867Z,7.9
2023-02-07T12:08:03.405Z,7.9
2023-02-07T12:11:03.791Z,8.7
2023-02-07T12:14:05.760Z,8.2
2023-02-07T12:17:07.693Z,8.7
2023-02-07T12:20:09.672Z,8.7
2023-02-07T12:23:34.764Z,8.4
2023-02-07T12:26:13.598Z,7.5
2023-02-07T12:29:15.558Z,8.8
2023-02-07T12:32:17.559Z,7.8
2023-02-07T12:35:19.496Z,7.9
2023-02-07T12:38:21.449Z,8.5
2023-02-07T12:41:23.407Z,8.3
2023-02-07T12:44:25.363Z,8.2
2023-02-07T12:47:27.334Z,8
2023-02-07T12:50:29.286Z,7.9
2023-02-07T12:53:31.250Z,7.5
2023-02-07T12:56:33.235Z,8.1
2023-02-07T12:59:35.195Z,7.5
2023-02-07T13:02:37.186Z,7.2
2023-02-07T13:05:39.416Z,8.6
2023-02-07T13:08:41.082Z,7.3
2023-02-07T13:11:43.074Z,7.5
2023-02-07T13:14:44.997Z,7.2
2023-02-07T13:17:46.932Z,7.3
2023-02-07T13:20:48.902Z,7.2
2023-02-07T13:23:50.856Z,7.3
2023-02-07T13:26:52.832Z,7.4
2023-02-07T13:29:54.791Z,6.8
2023-02-07T13:32:56.785Z,7.1
2023-02-07T13:35:58.723Z,6.6
2023-02-07T13:39:00.678Z,6.6
2023-02-07T13:42:02.642Z,6.6
2023-02-07T13:45:04.601Z,6.4
2023-02-07T13:48:06.565Z,6
2023-02-07T13:51:08.536Z,6.3
2023-02-07T13:54:10.499Z,6.2
2023-02-07T13:57:12.464Z,6.1
2023-02-07T14:00:14.454Z,6.9
2023-02-07T14:03:16.411Z,6
2023-02-07T14:06:18.375Z,5.8
2023-02-07T14:09:20.351Z,6.2
2023-02-07T14:12:22.338Z,5.9
2023-02-07T14:15:24.298Z,6.2
2023-02-07T14:18:26.236Z,6.2
2023-02-07T14:21:28.213Z,6.8
2023-02-07T14:24:30.178Z,6.5
2023-02-07T14:27:32.136Z,6.2
2023-02-07T14:30:34.111Z,5.6
2023-02-07T14:33:36.052Z,5.8
2023-02-07T14:36:38.020Z,5.4
2023-02-07T14:39:39.970Z,5.1
2023-02-07T14:42:41.937Z,5.4
2023-02-07T14:45:43.933Z,6.3
2023-02-07T14:48:45.866Z,5.6
2023-02-07T14:51:47.926Z,5.8
2023-02-07T14:54:49.760Z,5.2
2023-02-07T14:57:51.743Z,5.9
2023-02-07T15:00:53.699Z,5.6
2023-02-07T15:03:55.659Z,7.1
2023-02-07T15:06:57.623Z,6
2023-02-07T15:09:59.596Z,6.8
2023-02-07T15:13:01.534Z,6.7
2023-02-07T15:16:03.539Z,6.5
2023-02-07T15:19:05.464Z,7
2023-02-07T15:22:17.167Z,6.9
2023-02-07T15:25:09.403Z,6.8
2023-02-07T15:28:21.486Z,7.4
2023-02-07T15:31:13.429Z,7
2023-02-07T15:34:15.287Z,7.3
2023-02-07T15:37:17.268Z,7.3
2023-02-07T15:40:19.220Z,6.6
2023-02-07T15:43:21.187Z,7.4
2023-02-07T15:46:23.179Z,7.1
2023-02-07T15:49:25.112Z,7.3
2023-02-07T15:52:27.057Z,7.2
2023-02-07T15:55:29.015Z,7.5
2023-02-07T15:58:30.967Z,7.1
2023-02-07T16:01:32.936Z,7.1
2023-02-07T16:04:34.898Z,6.5
2023-02-07T16:07:36.870Z,6.3
2023-02-07T16:10:39.186Z,5.9
2023-02-07T16:13:40.807Z,5.8
2023-02-07T16:16:42.766Z,6
2023-02-07T16:19:44.735Z,6.7
2023-02-07T16:22:46.713Z,6.4
2023-02-07T16:25:48.668Z,6.4
2023-02-07T16:28:50.651Z,6
2023-02-07T16:31:52.682Z,7
2023-02-07T16:34:59.796Z,7.3
2023-02-07T16:37:56.546Z,7
2023-02-07T16:40:58.485Z,6.1
2023-02-07T16:44:00.468Z,6.2
2023-02-07T16:47:02.401Z,6.1
2023-02-07T16:50:04.364Z,7
2023-02-07T16:53:06.333Z,7.1
2023-02-07T16:56:08.294Z,6.7
2023-02-07T16:59:10.242Z,7
2023-02-07T17:02:12.242Z,6.9
2023-02-07T17:05:14.193Z,6.7
2023-02-07T17:08:16.135Z,6.7
2023-02-07T17:11:18.077Z,6.2
2023-02-07T17:14:20.046Z,6.9
2023-02-07T17:17:21.998Z,7.1
2023-02-07T17:20:23.960Z,7.5
2023-02-07T17:23:25.933Z,7.3
2023-02-07T17:26:27.897Z,6
2023-02-07T17:29:29.861Z,7.7
2023-02-07T17:32:31.827Z,6.7
2023-02-07T17:35:33.797Z,7.2
2023-02-07T17:38:35.746Z,6.8
2023-02-07T17:41:37.714Z,6.3
2023-02-07T17:44:39.689Z,7.2
2023-02-07T17:47:41.821Z,6.6
2023-02-07T17:50:43.596Z,6.3
2023-02-07T17:53:45.581Z,7.8
2023-02-07T17:56:47.531Z,6.4
2023-02-07T17:59:49.497Z,6.5
2023-02-07T18:02:51.455Z,7.3
2023-02-07T18:05:53.394Z,6.9
2023-02-07T18:08:57.152Z,6.4
2023-02-07T18:11:57.342Z,7.1
2023-02-07T18:14:59.275Z,5.8
2023-02-07T18:18:01.273Z,6.4
2023-02-07T18:21:03.209Z,6.4
2023-02-07T18:24:05.174Z,6.1
2023-02-07T18:27:07.122Z,6.2
2023-02-07T18:30:09.076Z,6.5
2023-02-07T18:33:12.272Z,6.2
2023-02-07T18:36:13.206Z,6.6
2023-02-07T18:39:14.975Z,5.2
2023-02-07T18:42:16.937Z,5.9
2023-02-07T18:45:18.942Z,6.5
2023-02-07T18:48:20.895Z,7.2
2023-02-07T18:51:22.863Z,7
2023-02-07T18:54:24.811Z,6.4
2023-02-07T18:57:26.809Z,7
2023-02-07T19:00:28.761Z,7.5
2023-02-07T19:03:30.738Z,7.8
2023-02-07T19:06:32.715Z,8.1
2023-02-07T19:09:34.647Z,9.3
2023-02-07T19:12:36.596Z,8.5
2023-02-07T19:15:38.580Z,8.1
2023-02-07T19:18:40.529Z,8.1
2023-02-07T19:21:42.462Z,7.9
2023-02-07T19:24:44.442Z,7.5
2023-02-07T19:27:46.391Z,8.5
2023-02-07T19:30:48.434Z,7.7
2023-02-07T19:33:50.326Z,7.3
2023-02-07T19:36:52.268Z,8.1
2023-02-07T19:39:54.240Z,8.5
2023-02-07T19:42:56.212Z,7.3
2023-02-07T19:45:58.171Z,8.3
2023-02-07T19:49:00.136Z,7.3
2023-02-07T19:52:02.104Z,7.4
2023-02-07T19:55:04.070Z,7.5
2023-02-07T19:58:06.023Z,8.5
2023-02-07T20:01:07.964Z,7.2
2023-02-07T20:04:10.085Z,7.9
2023-02-07T20:07:11.885Z,7.7
2023-02-07T20:10:13.865Z,8.2
2023-02-07T20:13:15.803Z,7.4
2023-02-07T20:16:17.825Z,8.7
2023-02-07T20:19:20.366Z,7
2023-02-07T20:22:21.682Z,8
2023-02-07T20:25:23.653Z,7.8
2023-02-07T20:28:25.676Z,8.3
2023-02-07T20:31:27.678Z,8.3
2023-02-07T20:34:29.613Z,7.4
2023-02-07T20:37:31.560Z,9
2023-02-07T20:40:33.544Z,10.1
2023-02-07T20:43:35.533Z,9.5
2023-02-07T20:46:37.511Z,9.6
2023-02-07T20:49:39.417Z,9.2
2023-02-07T20:52:41.404Z,10
2023-02-07T20:55:43.562Z,8.8
2023-02-07T20:58:45.365Z,9.8
2023-02-07T21:01:47.340Z,8.9
2023-02-07T21:04:49.281Z,10.2
2023-02-07T21:07:51.245Z,9.1
2023-02-07T21:10:53.217Z,9.1
2023-02-07T21:13:55.172Z,9.5
2023-02-07T21:16:57.141Z,10.4
2023-02-07T21:19:59.083Z,9.4
2023-02-07T21:23:01.070Z,9.8
2023-02-07T21:26:03.033Z,8.3
2023-02-07T21:29:04.993Z,9.9
2023-02-07T21:32:06.990Z,9.9
2023-02-07T21:35:08.925Z,10
2023-02-07T21:38:10.878Z,8.6
2023-02-07T21:41:12.840Z,9.7
2023-02-07T21:44:14.774Z,9.5
2023-02-07T21:47:16.754Z,8.2
2023-02-07T21:50:18.694Z,9.2
2023-02-07T21:53:20.672Z,8.7
2023-02-07T21:56:23.834Z,10.4
2023-02-07T21:59:24.582Z,10.4
2023-02-07T22:02:26.566Z,9.4
2023-02-07T22:05:28.511Z,10
2023-02-07T22:08:30.452Z,9.9
2023-02-07T22:11:32.435Z,9.3
2023-02-07T22:14:34.384Z,8.9
2023-02-07T22:17:36.345Z,10.1
2023-02-07T22:20:38.525Z,10.3
2023-02-07T22:23:40.296Z,10
2023-02-07T22:26:42.280Z,10.7
2023-02-07T22:29:44.227Z,10.1
2023-02-07T22:32:46.174Z,10.7
2023-02-07T22:35:48.146Z,10
2023-02-07T22:38:50.103Z,11.3
2023-02-07T22:41:52.066Z,9.9
2023-02-07T22:44:54.023Z,8.9
2023-02-07T22:47:55.989Z,9.8
2023-02-07T22:50:57.954Z,11.1
2023-02-07T22:53:59.890Z,10
2023-02-07T22:57:01.850Z,10.6
2023-02-07T23:00:03.816Z,10.5
2023-02-07T23:03:05.754Z,10.2
2023-02-07T23:06:07.734Z,9.4
2023-02-07T23:09:09.699Z,9.5
2023-02-07T23:12:11.676Z,10
2023-02-07T23:15:13.834Z,9.8
2023-02-07T23:18:15.642Z,10.6
2023-02-07T23:21:17.581Z,10.2
2023-02-07T23:24:19.549Z,10.8
2023-02-07T23:27:21.516Z,9.3
2023-02-07T23:30:23.476Z,10.7
2023-02-07T23:33:25.455Z,10.9
2023-02-07T23:36:27.415Z,9.8
2023-02-07T23:39:29.365Z,10.5
2023-02-07T23:42:31.335Z,10.2
2023-02-07T23:45:33.304Z,11.3
2023-02-07T23:48:37.709Z,10.7
2023-02-07T23:51:37.252Z,11.7
2023-02-07T23:54:39.237Z,10.1
2023-02-07T23:57:41.228Z,9.2
